Time;durP1;ratioP1;P1;durP2;ratioP2;P2;SDS_P1;SDS_P2;PMS_P1;PMS_P2;Temp;Humidity;BMP_temperature;BMP_pressure;BME280_temperature;BME280_humidity;BME280_pressure;Samples;Min_cycle;Max_cycle;Signal;HPM_P1;HPM_P2
2022/04/27 00:00:50;;;;;;;12.73;10.20;;;;;;;;;;5109674;28;20508;-90
2022/04/27 00:03:18;;;;;;;12.47;8.97;;;;;;;;;;5114148;22;20483;-90
2022/04/27 00:05:45;;;;;;;12.17;9.27;;;;;;;;;;5113329;28;20444;-91
2022/04/27 00:08:12;;;;;;;12.97;9.40;;;;;;;;;;5110119;28;20432;-91
2022/04/27 00:10:39;;;;;;;11.10;8.70;;;;;;;;;;5113162;28;20529;-92
2022/04/27 00:13:09;;;;;;;11.43;8.57;;;;;;;;;;5109562;28;20447;-91
2022/04/27 00:15:37;;;;;;;17.03;10.03;;;;;;;;;;5109914;28;20492;-91
2022/04/27 00:18:05;;;;;;;10.37;8.27;;;;;;;;;;5112313;28;20429;-92
2022/04/27 00:20:32;;;;;;;10.90;9.27;;;;;;;;;;5111003;28;20449;-91
2022/04/27 00:23:00;;;;;;;12.10;9.60;;;;;;;;;;5113412;22;20472;-92
2022/04/27 00:25:28;;;;;;;11.80;9.90;;;;;;;;;;5110015;28;20447;-90
2022/04/27 00:27:55;;;;;;;13.00;10.03;;;;;;;;;;5117687;22;20484;-91
2022/04/27 00:30:22;;;;;;;12.63;8.17;;;;;;;;;;5104095;28;20513;-90
2022/04/27 00:32:51;;;;;;;14.53;10.30;;;7.20;99.90;;;;;;5134175;22;20433;-90
2022/04/27 00:35:20;;;;;;;15.40;10.90;;;;;;;;;;5102708;22;20496;-92
2022/04/27 00:37:47;;;;;;;16.53;11.50;;;;;;;;;;5117451;22;20512;-90
2022/04/27 00:40:14;;;;;;;16.70;11.83;;;;;;;;;;5104778;28;20452;-90
2022/04/27 00:42:41;;;;;;;19.30;11.57;;;;;;;;;;5112193;28;20418;-91
2022/04/27 00:45:09;;;;;;;14.73;11.13;;;6.50;99.90;;;;;;5115062;22;20488;-91
2022/04/27 00:47:36;;;;;;;13.83;11.40;;;;;;;;;;5112535;28;20438;-90
2022/04/27 00:50:08;;;;;;;17.37;12.30;;;7.00;99.90;;;;;;5113511;22;20541;-90
2022/04/27 00:52:55;;;;;;;15.60;12.30;;;7.00;99.90;;;;;;5116867;22;20503;-90
2022/04/27 00:55:23;;;;;;;14.30;10.70;;;;;;;;;;5114420;22;20552;-91
2022/04/27 00:57:50;;;;;;;15.63;11.80;;;;;;;;;;5119564;22;20492;-92
2022/04/27 01:00:18;;;;;;;14.80;11.50;;;6.80;99.90;;;;;;5079606;28;20433;-91
2022/04/27 01:02:47;;;;;;;17.10;12.43;;;;;;;;;;5120694;22;20496;-90
2022/04/27 01:05:16;;;;;;;16.13;12.07;;;;;;;;;;5115752;22;20518;-90
2022/04/27 01:07:44;;;;;;;15.37;12.20;;;;;;;;;;5115933;22;20536;-92
2022/04/27 01:10:18;;;;;;;16.03;12.00;;;6.90;99.90;;;;;;5086192;22;20485;-92
2022/04/27 01:12:47;;;;;;;16.13;11.60;;;7.00;99.90;;;;;;5104467;22;20460;-91
2022/04/27 01:15:38;;;;;;;17.93;13.60;;;6.90;99.90;;;;;;5110950;28;20846;-90
2022/04/27 01:18:09;;;;;;;17.10;13.03;;;;;;;;;;5092311;22;20547;-91
2022/04/27 01:20:38;;;;;;;16.63;12.23;;;;;;;;;;5112192;28;20414;-91
2022/04/27 01:23:06;;;;;;;20.53;14.37;;;;;;;;;;5120701;22;20464;-91
2022/04/27 01:25:54;;;;;;;17.63;12.57;;;6.90;99.90;;;;;;5114518;28;20495;-91
2022/04/27 01:28:31;;;;;;;17.00;12.57;;;6.90;99.90;;;;;;5112477;22;20489;-91
2022/04/27 01:31:05;;;;;;;18.23;12.27;;;6.90;99.90;;;;;;5116625;22;20440;-89
2022/04/27 01:33:36;;;;;;;16.83;12.87;;;;;;;;;;5114239;22;20572;-91
2022/04/27 01:36:19;;;;;;;16.40;12.27;;;7.00;99.90;;;;;;5121034;22;20488;-91
2022/04/27 01:38:53;;;;;;;16.07;12.00;;;;;;;;;;5127191;22;20456;-91
2022/04/27 01:41:21;;;;;;;16.37;12.43;;;;;;;;;;5083419;22;20502;-92
2022/04/27 01:43:51;;;;;;;17.40;12.90;;;;;;;;;;5087703;22;20439;-90
2022/04/27 01:46:19;;;;;;;19.60;14.33;;;;;;;;;;5099756;22;20567;-92
2022/04/27 01:48:46;;;;;;;20.43;13.47;;;;;;;;;;5125655;22;20469;-92
2022/04/27 01:51:13;;;;;;;17.90;13.93;;;;;;;;;;5084889;28;20465;-92
2022/04/27 01:56:27;;;;;;;17.67;13.20;;;;;;;;;;5116873;22;20487;-90
2022/04/27 01:58:54;;;;;;;21.30;14.17;;;;;;;;;;5106869;28;20467;-91
2022/04/27 02:01:26;;;;;;;23.53;16.27;;;;;;;;;;5111413;22;20480;-91
2022/04/27 02:03:54;;;;;;;20.93;15.60;;;;;;;;;;5110591;28;20441;-93
2022/04/27 02:06:21;;;;;;;25.97;16.63;;;;;;;;;;5118212;22;20538;-93
2022/04/27 02:08:51;;;;;;;22.23;15.27;;;;;;;;;;5116513;22;20488;-91
2022/04/27 02:11:20;;;;;;;24.30;17.00;;;;;;;;;;5116484;22;20488;-91
2022/04/27 02:16:14;;;;;;;24.03;15.17;;;;;;;;;;5115012;22;20495;-92
2022/04/27 02:18:41;;;;;;;23.77;15.93;;;;;;;;;;5106683;28;20191;-93
2022/04/27 02:21:08;;;;;;;25.23;16.63;;;;;;;;;;5110872;28;20413;-92
2022/04/27 02:23:36;;;;;;;28.23;16.80;;;;;;;;;;5110223;28;20489;-90
2022/04/27 02:26:04;;;;;;;23.03;16.80;;;;;;;;;;5111018;28;20432;-92
2022/04/27 02:28:33;;;;;;;23.10;16.33;;;7.40;99.90;;;;;;5112685;22;20481;-91
2022/04/27 02:31:00;;;;;;;26.57;17.47;;;;;;;;;;5116246;22;20481;-91
2022/04/27 02:33:28;;;;;;;25.13;16.73;;;;;;;;;;5110445;28;20401;-91
2022/04/27 02:35:55;;;;;;;24.67;17.03;;;;;;;;;;5086356;28;20541;-92
2022/04/27 02:38:23;;;;;;;24.17;16.80;;;;;;;;;;5113454;22;20484;-90
2022/04/27 02:40:51;;;;;;;21.97;16.13;;;7.40;99.90;;;;;;5116457;22;20528;-90
2022/04/27 02:43:19;;;;;;;25.03;16.90;;;7.50;99.90;;;;;;5106734;22;20468;-91
2022/04/27 02:45:46;;;;;;;22.70;16.00;;;;;;;;;;5104117;28;20421;-91
2022/04/27 02:48:21;;;;;;;23.93;17.20;;;;;;;;;;5112369;22;20611;-91
2022/04/27 02:53:37;;;;;;;22.77;16.20;;;7.50;99.90;;;;;;5119423;22;20477;-90
2022/04/27 02:56:05;;;;;;;20.63;15.20;;;7.60;99.90;;;;;;5126108;28;20428;-91
2022/04/27 02:58:34;;;;;;;22.77;16.37;;;;;;;;;;5128059;28;20452;-91
2022/04/27 03:01:01;;;;;;;21.33;14.57;;;;;;;;;;5131129;28;20408;-91
2022/04/27 03:03:28;;;;;;;22.90;16.87;;;;;;;;;;5125613;28;20454;-91
2022/04/27 03:05:55;;;;;;;22.93;16.70;;;;;;;;;;5131937;28;20413;-91
2022/04/27 03:08:24;;;;;;;21.30;15.57;;;;;;;;;;5127809;22;20833;-91
2022/04/27 03:10:52;;;;;;;21.33;15.47;;;7.50;99.90;;;;;;5110583;28;20916;-90
2022/04/27 03:13:19;;;;;;;23.53;16.03;;;;;;;;;;5106198;28;20453;-92
2022/04/27 03:15:48;;;;;;;25.60;17.67;;;;;;;;;;5111429;28;20437;-91
2022/04/27 03:18:19;;;;;;;24.47;17.10;;;;;;;;;;5114480;28;20502;-91
2022/04/27 03:20:49;;;;;;;22.53;15.67;;;;;;;;;;5120720;22;20862;-90
2022/04/27 03:23:16;;;;;;;23.47;16.80;;;;;;;;;;5111744;28;20413;-91
2022/04/27 03:25:43;;;;;;;28.07;17.00;;;;;;;;;;5115146;28;20437;-91
2022/04/27 03:28:12;;;;;;;24.67;15.63;;;;;;;;;;5115473;28;20440;-91
2022/04/27 03:30:41;;;;;;;24.07;16.07;;;;;;;;;;5122652;22;20483;-90
2022/04/27 03:33:09;;;;;;;21.30;15.07;;;;;;;;;;5115181;28;20492;-91
2022/04/27 03:35:36;;;;;;;22.43;15.10;;;;;;;;;;5114723;28;20468;-91
2022/04/27 03:38:04;;;;;;;21.63;15.13;;;;;;;;;;5114222;28;20479;-92
2022/04/27 03:40:31;;;;;;;20.07;14.60;;;;;;;;;;5112403;28;20485;-91
2022/04/27 03:42:58;;;;;;;17.87;13.60;;;;;;;;;;5116036;28;20459;-89
2022/04/27 03:45:25;;;;;;;17.27;12.70;;;;;;;;;;5115039;28;20504;-90
2022/04/27 03:50:28;;;;;;;19.07;12.70;;;;;;;;;;5118311;22;20555;-91
2022/04/27 03:52:56;;;;;;;20.33;14.00;;;;;;;;;;5109230;28;20252;-91
2022/04/27 03:55:23;;;;;;;20.57;13.27;;;;;;;;;;5114113;28;20437;-91
2022/04/27 03:57:50;;;;;;;16.30;12.37;;;;;;;;;;5114105;28;20465;-90
2022/04/27 04:00:17;;;;;;;18.10;12.13;;;;;;;;;;5115530;22;20481;-90
2022/04/27 04:02:45;;;;;;;16.70;13.50;;;7.50;99.90;;;;;;5115657;22;20538;-91
2022/04/27 04:05:13;;;;;;;22.77;13.90;;;;;;;;;;5114657;22;20480;-91
2022/04/27 04:07:41;;;;;;;16.43;12.60;;;7.60;99.90;;;;;;5118704;22;20480;-90
2022/04/27 04:10:09;;;;;;;18.10;13.70;;;7.60;99.90;;;;;;5110081;28;20416;-90
2022/04/27 04:12:36;;;;;;;19.27;14.27;;;;;;;;;;5113490;28;20427;-90
2022/04/27 04:15:03;;;;;;;15.73;12.23;;;;;;;;;;5109224;28;20453;-91
2022/04/27 04:17:31;;;;;;;16.40;13.00;;;;;;;;;;5112263;28;20480;-91
2022/04/27 04:19:58;;;;;;;19.10;13.30;;;;;;;;;;5111736;28;20417;-91
2022/04/27 04:22:25;;;;;;;18.77;13.40;;;;;;;;;;5106605;28;20437;-89
2022/04/27 04:30:25;;;;;;;17.43;12.33;;;7.60;99.90;;;;;;5127940;22;20483;-89
2022/04/27 04:32:52;;;;;;;21.10;14.10;;;;;;;;;;5107965;28;20444;-91
2022/04/27 04:35:20;;;;;;;16.30;12.80;;;7.60;99.90;;;;;;5116267;22;20488;-91
2022/04/27 04:37:49;;;;;;;18.27;13.50;;;7.60;99.90;;;;;;5102188;22;20481;-90
2022/04/27 04:40:17;;;;;;;20.10;14.03;;;7.60;99.90;;;;;;5109904;28;20457;-90
2022/04/27 04:42:44;;;;;;;18.40;13.57;;;;;;;;;;5112221;28;20795;-89
2022/04/27 04:45:12;;;;;;;17.90;12.50;;;;;;;;;;5119288;22;20481;-89
2022/04/27 04:47:39;;;;;;;17.70;12.63;;;;;;;;;;5118588;22;20479;-91
2022/04/27 04:50:21;;;;;;;20.27;12.67;;;7.50;99.90;;;;;;5126420;22;20468;-91
2022/04/27 04:52:49;;;;;;;17.60;12.93;;;;;;;;;;5113686;22;20484;-88
2022/04/27 04:55:20;;;;;;;17.87;13.40;;;;;;;;;;5118445;22;20433;-90
2022/04/27 04:57:49;;;;;;;19.10;13.37;;;7.70;99.90;;;;;;5112823;28;20480;-88
2022/04/27 05:00:16;;;;;;;20.40;13.47;;;;;;;;;;5106723;28;20425;-89
2022/04/27 05:02:44;;;;;;;18.20;13.17;;;;;;;;;;5108077;28;20465;-90
2022/04/27 05:05:11;;;;;;;21.20;14.07;;;;;;;;;;5085201;28;20991;-90
2022/04/27 05:07:38;;;;;;;18.33;13.00;;;;;;;;;;5108203;28;20428;-90
2022/04/27 05:10:07;;;;;;;20.60;13.30;;;7.80;99.90;;;;;;5107705;28;20421;-90
2022/04/27 05:12:37;;;;;;;21.07;13.97;;;7.80;99.90;;;;;;5105111;28;20472;-90
2022/04/27 05:15:04;;;;;;;20.80;14.50;;;7.80;99.90;;;;;;5107803;28;20452;-90
2022/04/27 05:17:32;;;;;;;19.73;13.77;;;;;;;;;;5113913;22;20875;-90
2022/04/27 05:19:59;;;;;;;19.63;13.17;;;;;;;;;;5106976;28;20410;-89
2022/04/27 05:22:26;;;;;;;22.83;15.00;;;;;;;;;;5112555;28;20435;-90
2022/04/27 05:24:53;;;;;;;20.63;14.17;;;;;;;;;;5112666;28;20421;-89
2022/04/27 05:27:24;;;;;;;21.70;15.67;;;;;;;;;;5111098;28;20439;-88
2022/04/27 05:32:42;;;;;;;20.83;13.10;;;;;;;;;;5088114;28;20449;-90
2022/04/27 05:35:12;;;;;;;23.90;14.97;;;;;;;;;;5083028;28;20437;-89
2022/04/27 05:37:40;;;;;;;19.97;14.23;;;5.70;99.90;;;;;;5085571;22;20498;-90
2022/04/27 05:40:08;;;;;;;21.33;15.10;;;;;;;;;;5076458;28;20469;-90
2022/04/27 05:42:35;;;;;;;17.50;13.00;;;;;;;;;;5085429;28;20437;-90
2022/04/27 05:45:03;;;;;;;24.93;16.60;;;7.90;99.90;;;;;;5080206;28;20461;-89
2022/04/27 05:47:30;;;;;;;20.50;13.33;;;;;;;;;;5085459;28;20452;-90
2022/04/27 05:49:59;;;;;;;16.90;12.50;;;;;;;;;;5106763;22;20491;-90
2022/04/27 05:52:26;;;;;;;20.33;14.40;;;;;;;;;;5105010;28;20425;-95
2022/04/27 05:54:53;;;;;;;18.23;12.30;;;;;;;;;;5105616;28;20441;-91
2022/04/27 05:57:21;;;;;;;19.73;13.20;;;;;;;;;;5115980;28;20423;-91
2022/04/27 05:59:53;;;;;;;18.00;11.70;;;;;;;;;;5116318;22;20485;-91
2022/04/27 06:02:36;;;;;;;18.30;11.90;;;8.00;99.90;;;;;;5120276;22;20496;-90
2022/04/27 06:05:03;;;;;;;17.63;12.90;;;;;;;;;;5114384;28;20443;-90
2022/04/27 06:07:31;;;;;;;22.00;13.60;;;;;;;;;;5112892;22;20464;-91
2022/04/27 06:09:58;;;;;;;19.97;13.10;;;;;;;;;;5106378;28;20437;-96
2022/04/27 06:12:30;;;;;;;19.73;13.90;;;;;;;;;;5117744;22;20476;-91
2022/04/27 06:14:57;;;;;;;16.63;12.20;;;;;;;;;;5121771;22;20495;-91
2022/04/27 06:17:27;;;;;;;15.80;12.40;;;8.40;99.90;;;;;;5121259;22;20464;-90
2022/04/27 06:19:55;;;;;;;17.93;12.27;;;8.40;99.90;;;;;;5108905;28;20509;-92
2022/04/27 06:22:23;;;;;;;15.97;11.77;;;;;;;;;;5125525;22;20468;-91
2022/04/27 06:25:13;;;;;;;20.87;14.10;;;8.60;99.90;;;;;;5103974;22;20462;-92
2022/04/27 06:27:40;;;;;;;20.90;15.10;;;;;;;;;;5090592;22;20521;-93
2022/04/27 06:30:07;;;;;;;19.30;13.10;;;;;;;;;;5091447;28;20432;-92
2022/04/27 06:32:49;;;;;;;22.57;13.67;;;8.70;99.90;;;;;;5110131;22;20475;-92
2022/04/27 06:35:21;;;;;;;18.57;14.23;;;8.60;99.90;;;;;;5107497;22;20468;-93
2022/04/27 06:37:48;;;;;;;22.43;16.87;;;;;;;;;;5120990;22;20487;-93
2022/04/27 06:40:15;;;;;;;18.90;14.10;;;;;;;;;;5109380;28;20516;-92
2022/04/27 06:42:43;;;;;;;20.90;15.87;;;;;;;;;;5116388;28;20435;-92
2022/04/27 06:45:27;;;;;;;20.40;15.70;;;8.50;99.90;;;;;;5129342;22;20506;-92
2022/04/27 06:47:57;;;;;;;19.30;14.97;;;;;;;;;;5109236;22;20484;-93
2022/04/27 06:50:26;;;;;;;22.13;15.87;;;;;;;;;;5107888;28;20516;-93
2022/04/27 06:52:55;;;;;;;22.87;16.47;;;;;;;;;;5114351;22;20484;-93
2022/04/27 06:55:41;;;;;;;17.90;14.70;;;;;;;;;;5120623;22;20488;-92
2022/04/27 06:58:08;;;;;;;23.87;17.23;;;;;;;;;;5119947;22;20948;-94
2022/04/27 07:00:36;;;;;;;23.00;15.17;;;;;;;;;;5099969;28;21197;-94
2022/04/27 07:03:03;;;;;;;22.23;16.00;;;;;;;;;;5107639;28;20436;-93
2022/04/27 07:05:34;;;;;;;20.10;15.70;;;;;;;;;;5107243;28;20548;-95
2022/04/27 07:08:01;;;;;;;23.83;15.60;;;;;;;;;;5108727;28;20520;-96
2022/04/27 07:10:36;;;;;;;23.07;17.40;;;;;;;;;;5103664;28;20448;-93
2022/04/27 07:13:03;;;;;;;22.93;16.90;;;;;;;;;;5105278;28;20429;-90
2022/04/27 07:15:31;;;;;;;22.23;15.37;;;;;;;;;;5103432;28;20438;-92
2022/04/27 07:17:58;;;;;;;23.70;16.60;;;;;;;;;;5113155;22;20490;-93
2022/04/27 07:20:26;;;;;;;22.77;15.73;;;;;;;;;;5112106;28;20429;-90
2022/04/27 07:22:54;;;;;;;25.83;17.60;;;;;;;;;;5111026;28;20429;-92
2022/04/27 07:25:22;;;;;;;20.27;14.50;;;;;;;;;;5106189;22;20975;-94
2022/04/27 07:27:49;;;;;;;22.30;14.60;;;;;;;;;;5105203;28;20452;-93
2022/04/27 07:30:16;;;;;;;16.90;13.80;;;;;;;;;;5103659;28;20467;-94
2022/04/27 07:32:44;;;;;;;18.80;14.37;;;;;;;;;;5096625;28;20475;-92
2022/04/27 07:35:11;;;;;;;17.13;13.17;;;;;;;;;;5097943;28;20495;-93
2022/04/27 07:37:39;;;;;;;17.17;12.93;;;;;;;;;;5094928;28;20459;-94
2022/04/27 07:40:10;;;;;;;18.50;14.20;;;9.00;99.90;;;;;;5094622;28;20484;-93
2022/04/27 07:42:37;;;;;;;17.17;13.70;;;;;;;;;;5096567;28;20453;-94
2022/04/27 07:45:06;;;;;;;18.23;12.90;;;8.90;99.90;;;;;;5094963;28;20459;-91
2022/04/27 07:47:40;;;;;;;16.57;13.90;;;8.90;99.90;;;;;;5091591;28;20448;-93
2022/04/27 07:50:09;;;;;;;18.13;13.97;;;8.90;99.90;;;;;;5088766;28;20482;-92
2022/04/27 07:52:36;;;;;;;16.53;14.13;;;;;;;;;;5097363;28;20544;-91
2022/04/27 07:55:03;;;;;;;17.20;14.53;;;;;;;;;;5101335;28;20799;-93
2022/04/27 07:57:32;;;;;;;18.93;13.03;;;9.20;99.90;;;;;;5088943;28;20810;-90
2022/04/27 07:59:59;;;;;;;15.83;13.67;;;;;;;;;;5095201;28;20499;-92
2022/04/27 08:02:27;;;;;;;14.43;12.00;;;;;;;;;;5096151;28;20916;-92
2022/04/27 08:04:54;;;;;;;15.03;12.90;;;;;;;;;;5096625;28;20441;-93
2022/04/27 08:07:21;;;;;;;14.40;11.77;;;;;;;;;;5100031;28;20440;-92
2022/04/27 08:09:48;;;;;;;14.17;10.97;;;;;;;;;;5099580;28;20452;-89
2022/04/27 08:12:15;;;;;;;13.37;11.20;;;;;;;;;;5097820;28;20421;-90
2022/04/27 08:14:44;;;;;;;15.30;11.50;;;;;;;;;;5094353;28;20470;-91
2022/04/27 08:17:11;;;;;;;12.87;11.37;;;;;;;;;;5099372;28;20441;-92
2022/04/27 08:19:38;;;;;;;14.27;11.37;;;;;;;;;;5100921;28;20826;-90
2022/04/27 08:22:06;;;;;;;12.63;11.13;;;;;;;;;;5100093;28;20451;-92
2022/04/27 08:24:38;;;;;;;12.73;10.50;;;;;;;;;;5106440;28;20853;-94
2022/04/27 08:27:05;;;;;;;12.50;10.83;;;;;;;;;;5104563;28;20449;-95
2022/04/27 08:29:33;;;;;;;15.10;10.67;;;;;;;;;;5105223;28;20433;-92
2022/04/27 08:32:04;;;;;;;13.83;11.30;;;10.70;99.90;;;;;;5104180;28;20476;-93
2022/04/27 08:34:31;;;;;;;11.03;9.43;;;;;;;;;;5106135;28;20440;-91
2022/04/27 08:36:59;;;;;;;11.00;9.90;;;;;;;;;;5102954;28;20452;-92
2022/04/27 08:39:26;;;;;;;12.43;11.13;;;;;;;;;;5100238;28;20484;-91
2022/04/27 08:41:53;;;;;;;12.10;10.77;;;10.30;99.90;;;;;;5094905;28;20498;-92
2022/04/27 08:44:20;;;;;;;12.30;9.50;;;;;;;;;;5089334;28;20924;-91
2022/04/27 08:46:47;;;;;;;13.10;10.60;;;;;;;;;;5098201;28;20449;-92
2022/04/27 08:49:16;;;;;;;12.83;10.43;;;;;;;;;;5093161;28;20440;-93
2022/04/27 08:51:43;;;;;;;11.30;9.57;;;;;;;;;;5103129;28;20444;-89
2022/04/27 08:54:10;;;;;;;13.00;9.90;;;;;;;;;;5106667;28;20823;-90
2022/04/27 08:56:37;;;;;;;13.57;10.87;;;;;;;;;;5107179;28;20451;-90
2022/04/27 08:59:05;;;;;;;11.97;10.23;;;;;;;;;;5110304;22;20482;-87
2022/04/27 09:01:32;;;;;;;12.40;10.33;;;;;;;;;;5099942;28;20448;-88
2022/04/27 09:04:15;;;;;;;10.80;9.70;;;12.40;99.90;;;;;;5101969;28;20455;-89
2022/04/27 09:06:44;;;;;;;10.97;9.53;;;;;;;;;;5102123;28;20474;-90
2022/04/27 09:09:32;;;;;;;10.23;8.90;;;12.20;99.90;;;;;;5098662;28;20860;-90
2022/04/27 09:12:00;;;;;;;10.80;9.43;;;;;;;;;;5097111;28;20443;-92
2022/04/27 09:14:37;;;;;;;10.23;8.10;;;14.00;99.90;;;;;;5097023;28;20440;-90
2022/04/27 09:22:44;;;;;;;9.93;8.27;;;13.70;99.90;;;;;;5102970;28;20502;-90
2022/04/27 09:25:11;;;;;;;8.93;7.93;;;;;;;;;;5103623;28;20440;-88
2022/04/27 09:27:39;;;;;;;8.90;8.00;;;;;;;;;;5098023;28;20448;-94
2022/04/27 09:30:10;;;;;;;15.53;8.70;;;13.90;99.90;;;;;;5101956;28;20970;-88
2022/04/27 09:32:38;;;;;;;10.13;8.93;;;;;;;;;;5104530;28;20465;-89
2022/04/27 09:35:13;;;;;;;16.50;9.83;;;13.50;99.90;;;;;;5151884;22;20475;-87
2022/04/27 09:37:42;;;;;;;11.20;9.87;;;13.40;99.90;;;;;;5152720;22;20540;-88
2022/04/27 09:40:11;;;;;;;11.23;9.40;;;13.20;99.90;;;;;;5099415;28;20484;-94
2022/04/27 09:42:41;;;;;;;11.33;10.00;;;13.00;99.90;;;;;;5090945;28;20481;-91
2022/04/27 09:45:16;;;;;;;12.90;10.80;;;13.40;99.90;;;;;;5099644;28;20910;-92
2022/04/27 09:47:47;;;;;;;12.67;11.37;;;13.00;99.90;;;;;;5095977;28;20444;-91
2022/04/27 09:50:16;;;;;;;13.50;11.60;;;13.40;99.90;;;;;;5079410;28;20507;-89
2022/04/27 09:52:44;;;;;;;10.83;9.33;;;;;;;;;;5075447;28;20450;-88
2022/04/27 09:55:11;;;;;;;11.00;9.30;;;13.20;99.90;;;;;;5075673;28;20458;-88
2022/04/27 09:57:41;;;;;;;8.40;7.50;;;13.50;99.90;;;;;;5076942;28;20475;-88
2022/04/27 10:00:12;;;;;;;11.53;9.30;;;13.70;99.90;;;;;;5075832;28;20489;-90
2022/04/27 10:02:43;;;;;;;8.33;7.37;;;13.60;99.90;;;;;;5082447;28;20456;-89
2022/04/27 10:05:10;;;;;;;8.00;7.20;;;;;;;;;;5112384;22;20487;-88
2022/04/27 10:07:39;;;;;;;7.30;6.40;;;13.50;99.90;;;;;;5119923;28;20818;-88
2022/04/27 10:10:07;;;;;;;8.10;7.30;;;13.10;99.90;;;;;;5118935;28;20444;-89
2022/04/27 10:12:37;;;;;;;11.40;8.23;;;13.40;99.90;;;;;;5106971;28;20448;-89
2022/04/27 10:15:06;;;;;;;8.93;8.03;;;13.00;99.90;;;;;;5099735;28;20442;-88
2022/04/27 10:17:34;;;;;;;10.00;8.57;;;;;;;;;;5092548;28;20475;-88
2022/04/27 10:20:02;;;;;;;9.30;8.00;;;;;;;;;;5081292;28;20526;-95
2022/04/27 10:22:32;;;;;;;12.33;8.33;;;13.80;99.90;;;;;;5080994;28;20441;-90
2022/04/27 10:25:06;;;;;;;8.80;7.87;;;14.10;99.90;;;;;;5093122;28;20444;-93
2022/04/27 10:27:37;;;;;;;8.77;7.27;;;13.50;99.90;;;;;;5090808;28;20445;-92
2022/04/27 10:30:09;;;;;;;8.67;6.53;;;13.60;99.90;;;;;;5105591;28;20475;-94
2022/04/27 10:35:27;;;;;;;6.43;5.73;;;13.50;99.90;;;;;;5058050;28;20844;-96
2022/04/27 10:37:57;;;;;;;7.70;5.27;;;14.00;99.90;;;;;;5064230;28;20451;-91
2022/04/27 10:40:30;;;;;;;6.90;5.70;;;14.30;99.90;;;;;;5065345;28;20486;-89
2022/04/27 10:43:26;;;;;;;6.70;5.73;;;14.40;99.90;;;;;;5067723;28;20451;-93
2022/04/27 10:45:54;;;;;;;9.00;6.50;;;;;;;;;;5022820;28;20853;-88
2022/04/27 10:48:22;;;;;;;5.50;4.90;;;;;;;;;;5053611;28;20462;-91
2022/04/27 10:51:02;;;;;;;6.37;5.87;;;12.70;99.90;;;;;;5084904;22;20489;-91
2022/04/27 10:53:30;;;;;;;5.33;4.83;;;12.80;99.90;;;;;;5085936;28;20441;-89
2022/04/27 10:56:00;;;;;;;8.50;5.27;;;12.90;99.90;;;;;;5081035;28;20442;-91
2022/04/27 10:58:32;;;;;;;8.10;5.60;;;12.80;99.90;;;;;;5079527;28;20444;-90
2022/04/27 11:01:28;;;;;;;6.20;5.60;;;12.80;99.90;;;;;;5080846;28;20497;-89
2022/04/27 11:04:11;;;;;;;6.00;5.30;;;12.30;99.90;;;;;;5074875;28;20476;-89
2022/04/27 11:07:12;;;;;;;7.77;6.97;;;12.40;99.90;;;;;;5075264;28;20463;-90
2022/04/27 11:10:09;;;;;;;9.83;6.60;;;12.30;99.90;;;;;;5087178;28;20441;-93
2022/04/27 11:12:38;;;;;;;8.47;5.37;;;12.20;99.90;;;;;;5085879;28;20476;-93
2022/04/27 11:15:06;;;;;;;8.03;5.20;;;;;;;;;;5080486;28;20445;-90
2022/04/27 11:17:34;;;;;;;5.90;5.30;;;;;;;;;;5080898;28;20846;-91
2022/04/27 11:20:03;;;;;;;6.60;4.67;;;13.70;99.90;;;;;;5095791;28;20489;-92
2022/04/27 11:22:37;;;;;;;5.73;4.60;;;12.50;99.90;;;;;;5093312;28;20529;-93
2022/04/27 11:25:07;;;;;;;6.03;5.47;;;12.50;99.90;;;;;;5095361;28;20843;-92
2022/04/27 11:27:36;;;;;;;6.03;5.50;;;;;;;;;;5095153;28;20940;-94
2022/04/27 11:30:06;;;;;;;6.73;6.03;;;12.40;99.90;;;;;;5097870;28;20437;-91
2022/04/27 11:32:33;;;;;;;4.50;4.07;;;;;;;;;;5096129;28;20797;-88
2022/04/27 11:35:01;;;;;;;5.10;4.47;;;;;;;;;;5096019;28;20466;-94
2022/04/27 11:37:28;;;;;;;6.03;4.47;;;;;;;;;;5102582;28;20437;-93
2022/04/27 11:39:55;;;;;;;4.73;4.00;;;;;;;;;;5095652;28;20520;-94
2022/04/27 11:42:25;;;;;;;5.23;4.73;;;;;;;;;;5101389;28;20467;-91
2022/04/27 11:44:53;;;;;;;4.97;4.50;;;12.80;99.90;;;;;;5100785;28;20460;-92
2022/04/27 11:47:39;;;;;;;5.20;4.70;;;14.40;99.90;;;;;;5106227;28;20887;-91
2022/04/27 11:50:08;;;;;;;4.30;3.90;;;15.10;99.90;;;;;;5088041;28;20473;-88
2022/04/27 11:52:37;;;;;;;5.43;4.67;;;;;;;;;;5087984;28;20484;-90
2022/04/27 11:55:10;;;;;;;5.00;4.50;;;14.40;99.90;;;;;;5091123;28;20513;-89
2022/04/27 11:57:38;;;;;;;5.10;4.60;;;;;;;;;;5090450;28;20909;-88
2022/04/27 12:00:06;;;;;;;9.00;8.10;;;14.50;99.90;;;;;;5095783;28;20501;-86
2022/04/27 12:02:35;;;;;;;5.13;3.67;;;14.80;99.90;;;;;;5090240;28;20533;-88
2022/04/27 12:05:04;;;;;;;16.77;14.43;;;;;;;;;;5081249;28;20450;-89
2022/04/27 12:07:37;;;;;;;6.53;5.90;;;16.20;99.90;;;;;;5084003;28;20457;-90
2022/04/27 12:10:06;;;;;;;5.20;4.70;;;16.40;99.90;;;;;;5083174;28;20454;-90
2022/04/27 12:12:33;;;;;;;4.20;3.90;;;;;;;;;;5080783;28;20438;-91
2022/04/27 12:15:07;;;;;;;5.07;4.67;;;16.30;99.90;;;;;;5082086;28;20437;-86
2022/04/27 12:17:50;;;;;;;5.10;4.70;;;16.40;99.90;;;;;;5083065;28;20461;-86
2022/04/27 12:20:31;;;;;;;6.30;5.30;;;16.20;99.10;;;;;;5078221;28;20500;-87
2022/04/27 12:23:03;;;;;;;5.13;3.83;;;16.90;99.00;;;;;;5078918;28;20430;-85
2022/04/27 12:25:43;;;;;;;4.40;4.00;;;17.00;97.90;;;;;;5077860;28;20796;-93
2022/04/27 12:28:13;;;;;;;4.70;3.90;;;16.70;96.70;;;;;;5076522;28;20449;-87
2022/04/27 12:30:54;;;;;;;4.07;3.67;;;16.40;99.60;;;;;;5072307;28;20466;-93
2022/04/27 12:33:24;;;;;;;4.20;3.80;;;17.10;95.60;;;;;;5076495;28;20434;-89
2022/04/27 12:39:00;;;;;;;4.90;4.50;;;16.40;96.70;;;;;;5035012;28;20435;-89
2022/04/27 12:41:31;;;;;;;6.57;3.60;;;16.40;95.10;;;;;;5035185;28;20486;-90
2022/04/27 12:44:03;;;;;;;3.93;3.63;;;16.20;94.90;;;;;;5057181;28;20479;-90
2022/04/27 12:46:30;;;;;;;3.87;3.57;;;;;;;;;;5076263;28;20452;-89
2022/04/27 12:49:03;;;;;;;3.80;3.50;;;;;;;;;;5076806;28;20461;-89
2022/04/27 12:51:32;;;;;;;3.23;2.97;;;15.30;97.50;;;;;;5076774;28;21054;-91
2022/04/27 12:53:59;;;;;;;3.00;2.80;;;;;;;;;;5079664;28;20859;-89
2022/04/27 12:56:32;;;;;;;4.00;3.20;;;;;;;;;;5076669;28;20456;-88
2022/04/27 12:59:03;;;;;;;3.07;2.87;;;16.80;95.20;;;;;;5076850;28;21036;-93
2022/04/27 13:01:31;;;;;;;3.60;3.30;;;16.90;94.70;;;;;;5074389;28;20500;-88
2022/04/27 13:03:58;;;;;;;3.43;3.13;;;;;;;;;;5072248;28;20450;-87
2022/04/27 13:06:29;;;;;;;4.03;3.63;;;16.90;93.50;;;;;;5070112;28;20571;-89
2022/04/27 13:08:57;;;;;;;3.43;3.13;;;;;;;;;;5076286;28;20523;-90
2022/04/27 13:14:08;;;;;;;2.40;2.20;;;;;;;;;;5076232;28;20445;-89
2022/04/27 13:16:36;;;;;;;2.80;2.60;;;;;;;;;;5076193;28;20449;-92
2022/04/27 13:19:03;;;;;;;3.60;3.30;;;;;;;;;;5068426;28;20515;-89
2022/04/27 13:21:31;;;;;;;8.80;2.80;;;15.00;96.60;;;;;;5071290;28;20535;-89
2022/04/27 13:23:58;;;;;;;3.03;2.83;;;;;;;;;;5076373;28;20434;-89
2022/04/27 13:26:25;;;;;;;3.40;3.10;;;;;;;;;;5075393;28;20446;-93
2022/04/27 13:28:53;;;;;;;3.50;3.00;;;;;;;;;;5074770;28;20449;-92
2022/04/27 13:31:20;;;;;;;6.77;3.17;;;;;;;;;;5073417;28;20826;-88
2022/04/27 13:33:47;;;;;;;5.70;4.10;;;;;;;;;;5074575;28;20446;-88
2022/04/27 13:36:14;;;;;;;4.50;4.10;;;;;;;;;;5074310;28;20811;-90
2022/04/27 13:38:43;;;;;;;4.70;4.30;;;14.10;99.90;;;;;;5074401;28;20454;-89
2022/04/27 13:41:10;;;;;;;4.33;3.93;;;;;;;;;;5074214;28;20481;-89
2022/04/27 13:43:39;;;;;;;4.00;3.70;;;14.30;98.90;;;;;;5071506;28;20457;-87
2022/04/27 13:46:07;;;;;;;4.13;3.70;;;;;;;;;;5074284;28;20516;-88
2022/04/27 13:48:35;;;;;;;4.33;3.93;;;;;;;;;;5074695;28;20870;-92
2022/04/27 13:51:02;;;;;;;4.73;4.00;;;;;;;;;;5073156;28;20478;-92
2022/04/27 13:53:29;;;;;;;4.43;4.03;;;;;;;;;;5075182;28;20446;-92
2022/04/27 13:55:58;;;;;;;5.47;4.87;;;14.40;99.70;;;;;;5056876;28;20441;-91
2022/04/27 13:58:25;;;;;;;6.33;4.07;;;;;;;;;;5074436;28;20449;-90
2022/04/27 14:00:52;;;;;;;4.73;4.33;;;;;;;;;;5074658;28;20492;-91
2022/04/27 14:03:19;;;;;;;4.60;4.20;;;;;;;;;;5068687;28;20454;-89
2022/04/27 14:05:47;;;;;;;5.00;4.50;;;;;;;;;;5073756;28;20450;-89
2022/04/27 14:08:15;;;;;;;4.70;4.30;;;;;;;;;;5074584;28;20458;-90
2022/04/27 14:10:42;;;;;;;5.60;4.73;;;;;;;;;;5079592;28;20465;-89
2022/04/27 14:13:13;;;;;;;5.20;4.80;;;14.40;99.90;;;;;;5074586;28;20450;-90
2022/04/27 14:18:09;;;;;;;5.33;4.63;;;14.20;99.90;;;;;;5072563;28;20438;-91
2022/04/27 14:18:29;;;;;;;5.60;5.10;;;13.90;99.90;;;;;;5078834;28;20538;-90
2022/04/27 14:20:57;;;;;;;12.30;10.30;;;14.10;99.90;;;;;;5074175;28;20493;-91
2022/04/27 14:23:24;;;;;;;12.23;11.23;;;;;;;;;;5077222;28;20445;-91
2022/04/27 14:25:52;;;;;;;5.60;4.90;;;;;;;;;;5074178;28;20453;-93
2022/04/27 14:28:22;;;;;;;6.63;5.90;;;14.20;99.90;;;;;;5077712;28;20820;-90
2022/04/27 14:30:49;;;;;;;6.20;5.60;;;;;;;;;;5074588;28;20445;-93